createdAt,value
2018-06-17T00:00:17.696Z,101577.13
2018-06-17T00:02:46.498Z,101577.34
2018-06-17T00:05:15.287Z,101571.58
2018-06-17T00:07:44.288Z,101580.16
2018-06-17T00:10:13.078Z,101584.63
2018-06-17T00:12:41.857Z,101583.92
2018-06-17T00:15:10.677Z,101578.95
2018-06-17T00:17:39.455Z,101580.66
2018-06-17T00:20:08.237Z,101584.72
2018-06-17T00:22:37.045Z,101574.04
2018-06-17T00:25:05.843Z,101583.92
2018-06-17T00:27:34.623Z,101582.34
2018-06-17T00:30:03.469Z,101583.55
2018-06-17T00:32:32.261Z,101585.41
2018-06-17T00:35:01.047Z,101586.53
2018-06-17T00:37:29.956Z,101576.53
2018-06-17T00:39:58.745Z,101576.06
2018-06-17T00:42:27.525Z,101584.71
2018-06-17T00:44:56.338Z,101588.45
2018-06-17T00:47:25.121Z,101585.14
2018-06-17T00:49:53.950Z,101594.16
2018-06-17T00:52:22.730Z,101589.69
2018-06-17T00:54:51.506Z,101599.84
2018-06-17T00:57:31.326Z,101595.38
2018-06-17T01:00:00.076Z,101598.75
2018-06-17T01:02:28.844Z,101595.19
2018-06-17T01:04:57.649Z,101615.69
2018-06-17T01:07:26.461Z,101607.41
2018-06-17T01:09:55.273Z,101593.78
2018-06-17T01:12:24.145Z,101604.71
2018-06-17T01:14:52.932Z,101601.76
2018-06-17T01:17:21.721Z,101598.94
2018-06-17T01:19:50.541Z,101600.21
2018-06-17T01:22:19.353Z,101597.95
2018-06-17T01:24:48.135Z,101601.72
2018-06-17T01:27:16.937Z,101600.20
2018-06-17T01:29:45.709Z,101597.91
2018-06-17T01:32:14.478Z,101600.73
2018-06-17T01:34:43.236Z,101592.31
2018-06-17T01:37:11.997Z,101565.65
2018-06-17T01:39:40.878Z,101594.75
2018-06-17T01:42:09.657Z,101597.10
2018-06-17T01:44:38.461Z,101601.02
2018-06-17T01:47:07.213Z,101602.11
2018-06-17T01:49:36.002Z,101604.64
2018-06-17T01:52:04.757Z,101598.20
2018-06-17T01:54:33.526Z,101596.95
2018-06-17T01:57:02.317Z,101596.82
2018-06-17T01:59:31.074Z,101596.27
2018-06-17T02:01:59.841Z,101599.33
2018-06-17T02:04:33.605Z,101596.92
2018-06-17T02:07:07.534Z,101605.71
2018-06-17T02:09:41.429Z,101603.18
2018-06-17T02:12:15.471Z,101605.56
2018-06-17T02:15:00.532Z,101607.82
2018-06-17T02:17:29.557Z,101605.27
2018-06-17T02:19:58.322Z,101617.10
2018-06-17T02:22:27.126Z,101612.42
2018-06-17T02:24:55.909Z,101612.48
2018-06-17T02:27:24.676Z,101611.22
2018-06-17T02:29:53.451Z,101619.34
2018-06-17T02:32:22.215Z,101621.48
2018-06-17T02:34:50.973Z,101613.95
2018-06-17T02:37:19.742Z,101612.67
2018-06-17T02:39:48.505Z,101604.25
2018-06-17T02:42:17.353Z,101608.35
2018-06-17T02:44:49.530Z,101617.64
2018-06-17T02:47:23.498Z,101606.33
2018-06-17T02:49:52.266Z,101613.92
2018-06-17T02:52:26.110Z,101619.91
2018-06-17T02:54:54.886Z,101612.41
2018-06-17T02:57:23.632Z,101621.13
2018-06-17T02:59:52.417Z,101620.00
2018-06-17T03:02:21.170Z,101622.27
2018-06-17T03:04:49.927Z,101622.46
2018-06-17T03:07:18.714Z,101623.79
2018-06-17T03:09:47.670Z,101614.19
2018-06-17T03:12:16.439Z,101611.37
2018-06-17T03:14:45.212Z,101618.42
2018-06-17T03:17:14.022Z,101621.28
2018-06-17T03:19:42.776Z,101617.36
2018-06-17T03:22:11.530Z,101623.66
2018-06-17T03:24:45.542Z,101622.89
2018-06-17T03:27:19.561Z,101619.75
2018-06-17T03:29:53.577Z,101622.02
2018-06-17T03:32:27.520Z,101623.30
2018-06-17T03:35:01.484Z,101624.81
2018-06-17T03:37:30.283Z,101623.55
2018-06-17T03:39:59.077Z,101623.17
2018-06-17T03:42:27.866Z,101623.06
2018-06-17T03:44:56.650Z,101624.00
2018-06-17T03:47:25.404Z,101624.73
2018-06-17T03:49:54.243Z,101630.02
2018-06-17T03:52:23.045Z,101626.27
2018-06-17T03:54:51.818Z,101625.30
2018-06-17T03:57:20.650Z,101624.18
2018-06-17T03:59:49.424Z,101623.60
2018-06-17T04:02:19.198Z,101624.93
2018-06-17T04:04:53.152Z,101618.62
2018-06-17T04:07:21.906Z,101621.64
2018-06-17T04:09:50.690Z,101621.16
2018-06-17T04:12:19.505Z,101626.19
2018-06-17T04:14:48.279Z,101626.77
2018-06-17T04:17:17.054Z,101625.39
2018-06-17T04:19:46.674Z,101616.19
2018-06-17T04:22:15.461Z,101611.84
2018-06-17T04:24:44.290Z,101614.81
2018-06-17T04:27:13.119Z,101605.00
2018-06-17T04:29:41.882Z,101611.94
2018-06-17T04:32:10.650Z,101609.95
2018-06-17T04:34:39.477Z,101606.81
2018-06-17T04:37:08.271Z,101358.06
2018-06-17T04:39:37.029Z,101611.72
2018-06-17T04:42:05.885Z,101609.55
2018-06-17T04:44:34.718Z,101605.86
2018-06-17T04:47:03.564Z,101607.13
2018-06-17T04:49:32.402Z,101599.44
2018-06-17T04:52:01.200Z,101602.10
2018-06-17T04:54:30.000Z,101607.20
2018-06-17T04:56:58.813Z,101607.95
2018-06-17T04:59:27.569Z,101607.20
2018-06-17T05:01:56.383Z,101608.78
2018-06-17T05:04:25.202Z,101608.84
2018-06-17T05:06:54.018Z,101358.91
2018-06-17T05:09:22.789Z,101614.91
2018-06-17T05:11:51.625Z,101611.74
2018-06-17T05:14:20.488Z,101614.23
2018-06-17T05:16:49.256Z,101612.85
2018-06-17T05:19:18.063Z,101614.83
2018-06-17T05:21:46.902Z,101615.00
2018-06-17T05:24:15.768Z,101607.36
2018-06-17T05:26:44.549Z,101606.08
2018-06-17T05:29:13.304Z,101610.08
2018-06-17T05:31:42.089Z,101606.55
2018-06-17T05:34:10.893Z,101613.03
2018-06-17T05:36:39.720Z,101621.68
2018-06-17T05:39:10.886Z,101620.61
2018-06-17T05:41:39.657Z,101620.11
2018-06-17T05:44:08.478Z,101620.98
2018-06-17T05:46:37.705Z,101612.38
2018-06-17T05:49:06.796Z,101612.48
2018-06-17T05:51:35.733Z,101605.72
2018-06-17T05:54:04.526Z,101606.31
2018-06-17T05:56:33.333Z,101606.22
2018-06-17T05:59:02.079Z,101597.34
2018-06-17T06:01:30.832Z,101593.34
2018-06-17T06:03:59.699Z,101593.11
2018-06-17T06:06:28.493Z,101592.45
2018-06-17T06:08:57.272Z,101595.25
2018-06-17T06:11:26.076Z,101588.70
2018-06-17T06:13:54.925Z,101584.27
2018-06-17T06:16:23.754Z,101591.94
2018-06-17T06:18:52.711Z,101598.23
2018-06-17T06:21:22.118Z,101596.07
2018-06-17T06:23:50.954Z,101593.87
2018-06-17T06:26:19.771Z,101592.80
2018-06-17T06:28:48.570Z,101589.87
2018-06-17T06:31:17.407Z,101588.16
2018-06-17T06:33:46.886Z,101588.30
2018-06-17T06:36:15.646Z,101588.90
2018-06-17T06:38:44.422Z,101596.20
2018-06-17T06:41:13.253Z,101599.23
2018-06-17T06:43:42.031Z,101598.87
2018-06-17T06:46:10.807Z,101598.14
2018-06-17T06:48:39.875Z,101602.01
2018-06-17T06:51:08.823Z,101601.88
2018-06-17T06:53:37.667Z,101603.22
2018-06-17T06:56:07.086Z,101603.95
2018-06-17T06:58:35.910Z,101616.16
2018-06-17T07:01:04.757Z,101612.30
2018-06-17T07:03:44.581Z,101606.72
2018-06-17T07:06:24.432Z,101604.31
2018-06-17T07:09:05.164Z,101606.85
2018-06-17T07:11:34.142Z,101614.73
2018-06-17T07:14:02.907Z,101614.13
2018-06-17T07:16:42.728Z,101622.00
2018-06-17T07:19:11.530Z,101622.13
2018-06-17T07:21:40.330Z,101615.09
2018-06-17T07:24:09.134Z,101608.42
2018-06-17T07:26:49.829Z,101614.48
2018-06-17T07:29:42.261Z,101616.33
2018-06-17T07:32:11.041Z,101614.86
2018-06-17T07:34:39.872Z,101602.48
2018-06-17T07:37:08.798Z,101606.98
2018-06-17T07:41:46.385Z,101610.39
2018-06-17T07:44:15.248Z,101607.95
2018-06-17T07:46:44.023Z,101603.22
2018-06-17T07:49:40.435Z,101600.18
2018-06-17T07:52:20.818Z,101599.11
2018-06-17T07:54:49.858Z,101601.54
2018-06-17T07:57:20.786Z,101597.53
2018-06-17T07:59:49.557Z,101596.70
2018-06-17T08:02:18.705Z,101599.99
2018-06-17T08:04:47.560Z,101598.26
2018-06-17T08:07:16.310Z,101600.83
2018-06-17T08:09:45.175Z,101593.89
2018-06-17T08:12:14.249Z,101599.59
2018-06-17T08:14:43.128Z,101593.69
2018-06-17T08:17:12.065Z,101595.15
2018-06-17T08:19:41.463Z,101597.20
2018-06-17T08:22:10.269Z,101593.95
2018-06-17T08:24:39.163Z,101598.42
2018-06-17T08:27:07.986Z,101592.38
2018-06-17T08:29:36.762Z,101585.23
2018-06-17T08:32:05.590Z,101598.81
2018-06-17T08:34:34.400Z,101589.70
2018-06-17T08:37:03.184Z,101582.42
2018-06-17T08:39:31.986Z,101582.78
2018-06-17T08:42:00.834Z,101585.00
2018-06-17T08:44:29.614Z,101576.50
2018-06-17T08:46:58.426Z,101575.03
2018-06-17T08:49:27.220Z,101572.97
2018-06-17T08:51:56.026Z,101579.41
2018-06-17T08:54:24.798Z,101584.75
2018-06-17T08:56:53.594Z,101588.01
2018-06-17T08:59:22.396Z,101576.98
2018-06-17T09:01:51.163Z,101567.74
2018-06-17T09:04:19.976Z,101575.51
2018-06-17T09:06:48.785Z,101525.10
2018-06-17T09:09:17.601Z,101567.73
2018-06-17T09:11:46.406Z,101573.55
2018-06-17T09:14:15.226Z,101573.11
2018-06-17T09:16:44.035Z,101569.94
2018-06-17T09:19:12.941Z,101572.25
2018-06-17T09:21:41.742Z,101563.98
2018-06-17T09:24:10.536Z,101567.85
2018-06-17T09:26:39.317Z,101565.53
2018-06-17T09:29:08.138Z,101563.01
2018-06-17T09:31:37.001Z,101558.60
2018-06-17T09:34:05.969Z,101558.24
2018-06-17T09:36:34.746Z,101552.75
2018-06-17T09:39:04.382Z,101545.34
2018-06-17T09:41:33.619Z,101554.20
2018-06-17T09:44:02.479Z,101548.59
2018-06-17T09:46:31.307Z,101548.13
2018-06-17T09:49:00.130Z,101549.31
2018-06-17T09:51:28.922Z,101545.45
2018-06-17T09:53:57.904Z,101541.91
2018-06-17T09:56:26.762Z,101540.56
2018-06-17T09:58:55.555Z,101536.95
2018-06-17T10:01:24.339Z,101547.51
2018-06-17T10:03:53.157Z,101548.59
2018-06-17T10:06:21.941Z,101548.23
2018-06-17T10:08:50.738Z,101541.18
2018-06-17T10:11:19.534Z,101548.08
2018-06-17T10:13:48.306Z,101545.05
2018-06-17T10:16:17.221Z,101540.35
2018-06-17T10:18:46.038Z,101538.46
2018-06-17T10:21:14.875Z,101539.80
2018-06-17T10:23:43.813Z,101533.22
2018-06-17T10:26:12.606Z,101526.30
2018-06-17T10:28:41.435Z,101521.69
2018-06-17T10:31:10.263Z,101519.47
2018-06-17T10:33:39.093Z,101519.21
2018-06-17T10:36:07.917Z,101510.09
2018-06-17T10:38:36.745Z,101512.61
2018-06-17T10:41:05.566Z,101510.84
2018-06-17T10:43:34.441Z,101511.66
2018-06-17T10:46:03.240Z,101506.47
2018-06-17T10:48:32.009Z,101507.63
2018-06-17T10:51:00.791Z,101507.63
2018-06-17T10:53:29.597Z,101503.61
2018-06-17T10:55:58.475Z,101496.66
2018-06-17T10:58:27.181Z,101489.62
2018-06-17T11:00:55.949Z,101483.48
2018-06-17T11:03:24.746Z,101483.73
2018-06-17T11:05:53.559Z,101491.77
2018-06-17T11:08:22.361Z,101482.86
2018-06-17T11:10:51.145Z,101471.89
2018-06-17T11:13:19.978Z,101479.66
2018-06-17T11:15:48.773Z,101482.16
2018-06-17T11:18:17.569Z,101479.24
2018-06-17T11:20:46.369Z,101482.13
2018-06-17T11:23:15.233Z,101472.57
2018-06-17T11:25:44.010Z,101475.69
2018-06-17T11:28:12.821Z,101470.78
2018-06-17T11:30:41.602Z,101465.57
2018-06-17T11:33:10.405Z,101340.91
2018-06-17T11:35:39.225Z,101465.42
2018-06-17T11:38:08.030Z,101466.23
2018-06-17T11:40:36.821Z,101464.54
2018-06-17T11:43:05.593Z,101464.44
2018-06-17T11:45:34.375Z,101453.36
2018-06-17T11:48:03.142Z,101459.31
2018-06-17T11:50:31.906Z,101455.80
2018-06-17T11:53:00.937Z,101454.31
2018-06-17T11:55:29.714Z,101454.55
2018-06-17T11:57:58.499Z,101456.36
2018-06-17T12:00:27.283Z,101447.89
2018-06-17T12:02:56.067Z,101446.86
2018-06-17T12:05:24.914Z,101444.24
2018-06-17T12:07:53.726Z,101441.77
2018-06-17T12:10:22.526Z,101450.97
2018-06-17T12:12:51.278Z,101442.05
2018-06-17T12:15:20.097Z,101438.83
2018-06-17T12:17:48.922Z,101444.19
2018-06-17T12:20:17.671Z,101452.58
2018-06-17T12:22:46.473Z,101448.45
2018-06-17T12:25:15.253Z,101442.70
2018-06-17T12:27:44.007Z,101438.59
2018-06-17T12:30:12.781Z,101438.77
2018-06-17T12:32:41.551Z,101434.85
2018-06-17T12:35:10.372Z,101439.84
2018-06-17T12:37:39.174Z,101441.34
2018-06-17T12:40:07.961Z,101440.28
2018-06-17T12:42:36.738Z,101439.84
2018-06-17T12:45:05.647Z,101440.02
2018-06-17T12:47:34.455Z,101435.93
2018-06-17T12:50:03.338Z,101437.23
2018-06-17T12:52:32.129Z,101438.42
2018-06-17T12:55:00.929Z,101436.09
2018-06-17T12:57:29.717Z,101439.48
2018-06-17T12:59:58.496Z,101434.59
2018-06-17T13:02:27.271Z,101432.86
2018-06-17T13:04:56.024Z,101426.16
2018-06-17T13:07:24.813Z,101418.88
2018-06-17T13:09:53.577Z,101414.75
2018-06-17T13:12:22.345Z,101418.14
2018-06-17T13:14:51.162Z,101414.33
2018-06-17T13:17:20.035Z,101414.66
2018-06-17T13:19:48.821Z,101422.23
2018-06-17T13:22:17.660Z,101408.08
2018-06-17T13:24:46.458Z,101406.30
2018-06-17T13:27:15.275Z,101400.67
2018-06-17T13:29:44.096Z,101401.18
2018-06-17T13:32:12.949Z,101408.80
2018-06-17T13:34:41.769Z,101408.52
2018-06-17T13:37:10.643Z,101411.91
2018-06-17T13:39:39.432Z,101410.95
2018-06-17T13:42:08.207Z,101410.39
2018-06-17T13:44:37.509Z,101407.38
2018-06-17T13:47:06.570Z,101414.17
2018-06-17T13:49:35.801Z,101416.91
2018-06-17T13:52:04.610Z,101413.50
2018-06-17T13:54:33.413Z,101406.29
2018-06-17T13:57:02.171Z,101405.05
2018-06-17T13:59:31.006Z,101412.88
2018-06-17T14:01:59.785Z,101402.48
2018-06-17T14:04:28.601Z,101403.02
2018-06-17T14:06:57.408Z,101390.78
2018-06-17T14:09:26.174Z,101389.19
2018-06-17T14:11:55.070Z,101389.59
2018-06-17T14:14:23.850Z,101387.47
2018-06-17T14:16:52.753Z,101383.00
2018-06-17T14:19:21.580Z,101381.21
2018-06-17T14:21:50.420Z,101388.38
2018-06-17T14:24:19.254Z,101385.72
2018-06-17T14:26:48.030Z,101374.91
2018-06-17T14:29:16.812Z,101379.02
2018-06-17T14:31:45.641Z,101363.66
2018-06-17T14:34:14.432Z,101360.93
2018-06-17T14:36:43.273Z,101366.34
2018-06-17T14:39:13.121Z,101361.61
2018-06-17T14:41:41.958Z,101360.37
2018-06-17T14:44:16.009Z,101350.47
2018-06-17T14:47:49.636Z,101336.94
2018-06-17T14:50:23.666Z,101323.83
2018-06-17T14:52:57.510Z,101321.98
2018-06-17T14:55:26.269Z,101311.25
2018-06-17T14:57:55.087Z,101314.59
2018-06-17T15:00:23.891Z,101318.03
2018-06-17T15:02:52.765Z,101315.73
2018-06-17T15:05:21.575Z,101321.30
2018-06-17T15:07:50.374Z,101314.05
2018-06-17T15:10:19.245Z,101315.19
2018-06-17T15:12:48.079Z,101307.27
2018-06-17T15:15:16.958Z,101306.36
2018-06-17T15:17:45.829Z,101300.86
2018-06-17T15:20:14.617Z,101294.59
2018-06-17T15:22:43.410Z,101299.96
2018-06-17T15:25:12.195Z,101249.33
2018-06-17T15:27:41.028Z,101292.03
2018-06-17T15:30:09.923Z,101296.31
2018-06-17T15:32:43.939Z,101295.78
2018-06-17T15:35:17.897Z,101301.82
2018-06-17T15:37:51.828Z,101300.86
2018-06-17T15:40:24.851Z,101296.09
2018-06-17T15:42:53.707Z,101218.77
2018-06-17T15:45:22.672Z,101255.47
2018-06-17T15:47:51.778Z,101299.48
2018-06-17T15:50:21.730Z,101292.18
2018-06-17T15:52:50.798Z,101296.31
2018-06-17T15:55:19.870Z,101291.82
2018-06-17T15:57:49.165Z,101290.69
2018-06-17T16:00:18.129Z,101290.13
2018-06-17T16:02:46.966Z,101292.97
2018-06-17T16:05:16.465Z,101298.67
2018-06-17T16:07:45.652Z,101286.85
2018-06-17T16:10:14.448Z,101279.65
2018-06-17T16:12:48.397Z,101277.37
2018-06-17T16:15:22.292Z,101284.52
2018-06-17T16:17:56.290Z,101277.84
2018-06-17T16:20:30.244Z,101283.66
2018-06-17T16:22:59.301Z,101285.50
2018-06-17T16:25:28.117Z,101283.09
2018-06-17T16:27:56.894Z,101285.02
2018-06-17T16:30:25.750Z,101274.80
2018-06-17T16:32:55.482Z,101278.09
2018-06-17T16:35:24.376Z,101275.16
2018-06-17T16:37:53.246Z,101281.73
2018-06-17T16:40:22.038Z,101282.62
2018-06-17T16:42:50.833Z,101274.48
2018-06-17T16:45:19.765Z,101273.63
2018-06-17T16:47:48.589Z,101273.25
2018-06-17T16:50:17.410Z,101266.41
2018-06-17T16:52:51.464Z,101267.99
2018-06-17T16:55:25.537Z,101263.27
2018-06-17T16:57:59.473Z,101253.33
2018-06-17T17:00:28.506Z,101239.73
2018-06-17T17:02:57.363Z,101241.97
2018-06-17T17:05:29.221Z,101262.02
2018-06-17T17:07:58.027Z,101265.30
2018-06-17T17:10:26.822Z,101256.57
2018-06-17T17:12:55.638Z,101252.88
2018-06-17T17:15:24.427Z,101249.95
2018-06-17T17:17:53.190Z,101253.95
2018-06-17T17:20:22.016Z,101248.91
2018-06-17T17:22:50.826Z,101247.69
2018-06-17T17:25:19.601Z,101242.96
2018-06-17T17:27:48.452Z,101243.39
2018-06-17T17:30:17.256Z,101232.33
2018-06-17T17:33:48.967Z,101232.33
2018-06-17T17:36:22.821Z,101245.06
2018-06-17T17:38:57.046Z,101259.99
2018-06-17T17:41:26.198Z,101251.98
2018-06-17T17:43:54.992Z,101252.95
2018-06-17T17:46:28.834Z,101254.91
2018-06-17T17:48:57.593Z,101249.43
2018-06-17T17:51:26.559Z,101252.96
2018-06-17T17:53:55.382Z,101244.23
2018-06-17T17:56:24.692Z,101243.39
2018-06-17T17:58:53.874Z,101234.78
2018-06-17T18:01:22.968Z,101235.25
2018-06-17T18:03:51.828Z,101243.17
2018-06-17T18:06:20.963Z,101232.86
2018-06-17T18:08:49.854Z,101228.25
2018-06-17T18:11:18.656Z,101225.35
2018-06-17T18:13:48.225Z,101211.42
2018-06-17T18:16:17.815Z,101205.12
2018-06-17T18:18:46.830Z,101200.87
2018-06-17T18:21:16.175Z,101208.27
2018-06-17T18:23:45.391Z,101206.45
2018-06-17T18:26:19.711Z,101204.50
2018-06-17T18:28:53.846Z,101191.92
2018-06-17T18:31:22.631Z,101182.72
2018-06-17T18:33:56.578Z,101172.88
2018-06-17T18:36:25.391Z,101170.09
2018-06-17T18:38:54.967Z,101164.24
2018-06-17T18:41:23.772Z,101158.59
2018-06-17T18:43:52.574Z,101154.50
2018-06-17T18:46:21.385Z,101156.06
2018-06-17T18:48:50.185Z,101157.88
2018-06-17T18:51:18.978Z,101156.15
2018-06-17T18:53:47.758Z,101145.82
2018-06-17T18:56:16.520Z,101146.32
2018-06-17T18:58:45.309Z,101145.33
2018-06-17T19:01:14.094Z,101148.16
2018-06-17T19:03:42.915Z,101130.38
2018-06-17T19:06:11.693Z,101134.34
2018-06-17T19:08:45.708Z,101139.12
2018-06-17T19:11:19.593Z,101119.52
2018-06-17T19:13:53.698Z,101118.22
2018-06-17T19:16:27.649Z,101124.63
2018-06-17T19:18:56.628Z,101125.69
2018-06-17T19:21:25.405Z,101128.89
2018-06-17T19:23:54.162Z,101130.66
2018-06-17T19:26:22.993Z,101136.64
2018-06-17T19:28:51.795Z,101132.05
2018-06-17T19:31:20.593Z,101126.23
2018-06-17T19:33:49.499Z,101122.67
2018-06-17T19:36:18.281Z,101118.22
2018-06-17T19:38:47.087Z,101121.66
2018-06-17T19:41:16.181Z,101101.11
2018-06-17T19:43:44.974Z,101091.64
2018-06-17T19:46:13.760Z,101089.99
2018-06-17T19:48:42.789Z,101087.20
2018-06-17T19:51:16.786Z,101068.45
2018-06-17T19:53:50.770Z,101065.52
2018-06-17T19:56:24.733Z,101066.76
2018-06-17T19:58:58.667Z,101057.07
2018-06-17T20:01:27.462Z,101047.81
2018-06-17T20:03:56.246Z,101053.66
2018-06-17T20:06:25.364Z,101054.82
2018-06-17T20:08:53.961Z,101043.83
2018-06-17T20:11:22.755Z,101029.55
2018-06-17T20:13:51.558Z,101017.76
2018-06-17T20:16:20.368Z,101019.81
2018-06-17T20:18:49.178Z,101022.67
2018-06-17T20:21:17.970Z,101013.64
2018-06-17T20:23:46.750Z,101007.96
2018-06-17T20:26:15.577Z,101003.24
2018-06-17T20:28:44.374Z,101009.17
2018-06-17T20:31:13.281Z,101004.94
2018-06-17T20:33:47.298Z,100995.82
2018-06-17T20:36:21.185Z,100992.36
2018-06-17T20:38:55.227Z,100990.73
2018-06-17T20:41:29.186Z,100984.49
2018-06-17T20:43:58.078Z,100981.53
2018-06-17T20:46:26.858Z,100982.06
2018-06-17T20:48:55.691Z,100971.38
2018-06-17T20:51:24.474Z,100965.31
2018-06-17T20:53:53.314Z,100954.83
2018-06-17T20:56:22.077Z,100967.03
2018-06-17T20:58:50.895Z,100956.38
2018-06-17T21:01:19.718Z,100967.78
2018-06-17T21:03:48.517Z,100953.28
2018-06-17T21:06:17.331Z,100941.53
2018-06-17T21:08:46.096Z,100940.31
2018-06-17T21:11:14.862Z,100929.80
2018-06-17T21:13:43.672Z,100932.63
2018-06-17T21:16:12.458Z,100923.83
2018-06-17T21:18:46.397Z,100920.61
2018-06-17T21:21:20.357Z,100924.73
2018-06-17T21:23:54.309Z,100920.38
2018-06-17T21:26:28.265Z,100918.80
2018-06-17T21:28:57.041Z,100910.23
2018-06-17T21:31:25.831Z,100897.61
2018-06-17T21:33:54.653Z,100895.41
2018-06-17T21:36:23.423Z,100883.88
2018-06-17T21:38:52.195Z,100882.61
2018-06-17T21:41:20.981Z,100876.08
2018-06-17T21:43:49.777Z,100869.31
2018-06-17T21:46:18.542Z,100860.47
2018-06-17T21:48:47.346Z,100852.26
2018-06-17T21:51:16.177Z,100845.27
2018-06-17T21:53:44.977Z,100848.38
2018-06-17T21:56:13.761Z,100845.83
2018-06-17T21:58:48.962Z,100844.52
2018-06-17T22:01:19.265Z,100833.64
2018-06-17T22:03:48.077Z,100815.20
2018-06-17T22:06:16.840Z,100811.42
2018-06-17T22:08:50.747Z,100816.97
2018-06-17T22:11:24.697Z,100815.88
2018-06-17T22:13:58.512Z,100811.91
2018-06-17T22:16:32.475Z,100808.40
2018-06-17T22:19:01.314Z,100804.28
2018-06-17T22:21:30.097Z,100798.98
2018-06-17T22:23:58.925Z,100807.81
2018-06-17T22:26:27.723Z,100801.76
2018-06-17T22:28:56.647Z,100817.55
2018-06-17T22:31:25.450Z,100813.48
2018-06-17T22:33:54.623Z,100814.80
2018-06-17T22:36:23.405Z,100807.63
2018-06-17T22:38:52.235Z,100798.61
2018-06-17T22:41:21.090Z,100791.98
2018-06-17T22:43:49.871Z,100785.11
2018-06-17T22:46:18.652Z,100783.66
2018-06-17T22:48:47.418Z,100792.33
2018-06-17T22:51:16.194Z,100783.03
2018-06-17T22:53:55.947Z,100781.68
2018-06-17T22:56:29.841Z,100772.89
2018-06-17T22:59:03.832Z,100765.87
2018-06-17T23:01:37.774Z,100763.11
2018-06-17T23:04:11.720Z,100768.30
2018-06-17T23:06:45.567Z,100755.61
2018-06-17T23:09:19.655Z,100752.58
2018-06-17T23:11:48.466Z,100747.53
2018-06-17T23:14:17.265Z,100736.42
2018-06-17T23:16:46.065Z,100738.20
2018-06-17T23:19:14.842Z,100739.17
2018-06-17T23:21:43.651Z,100734.11
2018-06-17T23:24:12.435Z,100738.95
2018-06-17T23:26:41.221Z,100732.05
2018-06-17T23:29:10.018Z,100722.77
2018-06-17T23:31:38.874Z,100727.45
2018-06-17T23:34:07.669Z,100731.23
2018-06-17T23:36:36.554Z,100720.72
2018-06-17T23:39:07.990Z,100706.83
2018-06-17T23:41:36.795Z,100705.75
2018-06-17T23:44:05.686Z,100705.23
2018-06-17T23:46:39.623Z,100704.29
2018-06-17T23:49:13.490Z,100706.11
2018-06-17T23:51:47.679Z,100699.57
2018-06-17T23:54:21.550Z,100692.70
2018-06-17T23:56:50.374Z,100684.00
2018-06-17T23:59:19.174Z,100665.61
